Time;durP1;ratioP1;P1;durP2;ratioP2;P2;SDS_P1;SDS_P2;PMS_P1;PMS_P2;Temp;Humidity;BMP_temperature;BMP_pressure;BME280_temperature;BME280_humidity;BME280_pressure;Samples;Min_cycle;Max_cycle;Signal;HPM_P1;HPM_P2
2022/04/20 00:00:56;;;;;;;6.83;3.70;;;;;;;;;;4994503;28;20392;-50
2022/04/20 00:03:22;;;;;;;3.77;3.00;;;;;;;;;;4993818;28;20460;-50
2022/04/20 00:05:48;;;;;;;4.70;2.63;;;;;;;;;;4993133;28;20436;-51
2022/04/20 00:08:14;;;;;;;3.00;2.63;;;;;;;;;;4992392;28;20427;-49
2022/04/20 00:10:40;;;;;;;3.20;2.97;;;;;;;;;;4991425;28;20419;-50
2022/04/20 00:13:06;;;;;;;3.53;3.07;;;;;;;;;;4993843;28;20501;-51
2022/04/20 00:15:32;;;;;;;3.67;3.10;;;;;;;;;;4994319;28;20413;-50
2022/04/20 00:17:58;;;;;;;3.57;3.27;;;;;;;;;;4994171;28;20823;-50
2022/04/20 00:20:24;;;;;;;3.30;2.83;;;;;;;;;;4994033;28;20407;-50
2022/04/20 00:22:50;;;;;;;4.07;3.33;;;;;;;;;;4993619;28;20834;-49
2022/04/20 00:25:16;;;;;;;2.90;2.70;;;;;;;;;;4993839;28;20810;-50
2022/04/20 00:27:42;;;;;;;3.60;2.70;;;;;;;;;;4993913;28;20483;-50
2022/04/20 00:30:09;;;;;;;2.90;2.70;;;;;;;;;;4993853;28;20493;-50
2022/04/20 00:32:35;;;;;;;4.53;2.50;;;;;;;;;;4993354;28;20435;-50
2022/04/20 00:35:01;;;;;;;3.97;3.10;;;;;;;;;;4992517;28;20447;-50
2022/04/20 00:37:28;;;;;;;2.80;2.57;;;;;;;;;;4993619;28;20443;-50
2022/04/20 00:39:54;;;;;;;4.60;2.93;;;;;;;;;;4993588;28;20423;-50
2022/04/20 00:42:22;;;;;;;2.80;2.60;;;;;;;;;;4993263;28;20976;-50
2022/04/20 00:44:49;;;;;;;2.60;2.40;;;;;;;;;;4993614;28;20403;-50
2022/04/20 00:47:15;;;;;;;5.53;2.83;;;;;;;;;;4993529;28;20783;-50
2022/04/20 00:49:43;;;;;;;2.70;2.50;;;;;;;;;;4993489;28;20438;-50
2022/04/20 00:52:09;;;;;;;3.10;2.80;;;;;;;;;;4993332;28;20478;-51
2022/04/20 00:54:35;;;;;;;3.20;2.63;;;;;;;;;;4993438;28;20408;-50
2022/04/20 00:57:01;;;;;;;3.17;2.50;;;;;;;;;;4993411;28;20404;-50
2022/04/20 00:59:28;;;;;;;2.73;2.53;;;;;;;;;;4993264;28;20411;-49
2022/04/20 01:01:54;;;;;;;2.83;2.60;;;;;;;;;;4992305;28;20456;-49
2022/04/20 01:04:20;;;;;;;2.40;2.20;;;;;;;;;;4992840;28;20465;-50
2022/04/20 01:06:46;;;;;;;5.23;2.33;;;;;;;;;;4992692;28;20812;-50
2022/04/20 01:09:13;;;;;;;2.70;2.50;;;;;;;;;;4993288;28;20410;-50
2022/04/20 01:11:39;;;;;;;2.90;2.70;;;;;;;;;;4992760;28;20879;-50
2022/04/20 01:14:06;;;;;;;3.27;2.57;;;;;;;;;;4992858;28;20563;-50
2022/04/20 01:16:32;;;;;;;3.40;2.60;;;;;;;;;;4993061;28;20441;-50
2022/04/20 01:18:58;;;;;;;3.10;2.87;;;;;;;;;;4993015;28;20501;-50
2022/04/20 01:21:25;;;;;;;3.03;2.73;;;;;;;;;;4992467;28;20782;-50
2022/04/20 01:23:51;;;;;;;3.03;2.60;;;;;;;;;;4992898;28;20420;-50
2022/04/20 01:26:17;;;;;;;2.80;2.60;;;;;;;;;;4992893;28;20908;-49
2022/04/20 01:28:45;;;;;;;3.27;2.90;;;;;;;;;;4993166;28;20888;-50
2022/04/20 01:31:16;;;;;;;3.30;2.93;;;;;;;;;;4992709;28;20425;-49
2022/04/20 01:33:42;;;;;;;3.00;2.80;;;;;;;;;;4992479;28;20429;-50
2022/04/20 01:36:09;;;;;;;3.17;2.87;;;;;;;;;;4992636;28;20412;-49
2022/04/20 01:38:35;;;;;;;4.37;3.27;;;;;;;;;;4992637;28;20401;-49
2022/04/20 01:41:01;;;;;;;5.27;3.40;;;;;;;;;;4992605;28;20982;-50
2022/04/20 01:43:27;;;;;;;3.23;3.03;;;;;;;;;;4991615;28;20555;-50
2022/04/20 01:45:52;;;;;;;2.90;2.60;;;;;;;;;;4992641;28;20409;-49
2022/04/20 01:48:18;;;;;;;3.40;2.97;;;;;;;;;;4992493;28;20405;-49
2022/04/20 01:53:30;;;;;;;3.70;3.40;;;;;;;;;;4992198;28;20479;-49
2022/04/20 01:55:56;;;;;;;3.43;3.13;;;;;;;;;;4992523;28;20404;-50
2022/04/20 01:58:22;;;;;;;3.53;3.23;;;;;;;;;;4992414;28;20410;-49
2022/04/20 02:00:48;;;;;;;4.57;3.57;;;;;;;;;;4992362;28;20868;-49
2022/04/20 02:03:14;;;;;;;3.50;3.20;;;;;;;;;;4991859;28;20474;-50
2022/04/20 02:05:40;;;;;;;3.50;3.20;;;;;;;;;;4992666;28;20519;-49
2022/04/20 02:08:06;;;;;;;3.17;2.97;;;;;;;;;;4992351;28;20392;-49
2022/04/20 02:10:32;;;;;;;4.57;3.67;;;;;;;;;;4992286;28;20776;-50
2022/04/20 02:12:58;;;;;;;4.10;3.10;;;;;;;;;;4991944;28;20451;-50
2022/04/20 02:15:24;;;;;;;3.97;3.03;;;;;;;;;;4992271;28;20958;-49
2022/04/20 02:17:50;;;;;;;4.40;3.57;;;;;;;;;;4992244;28;20892;-49
2022/04/20 02:20:16;;;;;;;3.63;3.30;;;;;;;;;;4992580;28;20415;-50
2022/04/20 02:22:42;;;;;;;3.87;3.57;;;;;;;;;;4991810;28;20459;-51
2022/04/20 02:25:08;;;;;;;4.63;3.57;;;;;;;;;;4992298;28;20402;-49
2022/04/20 02:27:34;;;;;;;5.00;3.80;;;;;;;;;;4992196;28;20439;-49
2022/04/20 02:30:00;;;;;;;4.30;3.77;;;;;;;;;;4992178;28;20401;-50
2022/04/20 02:32:26;;;;;;;3.90;3.57;;;;;;;;;;4991770;28;20428;-50
2022/04/20 02:34:52;;;;;;;4.60;3.80;;;;;;;;;;4992163;28;20405;-49
2022/04/20 02:37:18;;;;;;;4.60;4.20;;;;;;;;;;4992122;28;20935;-50
2022/04/20 02:39:44;;;;;;;4.07;3.67;;;;;;;;;;4992133;28;20961;-49
2022/04/20 02:42:11;;;;;;;5.20;3.57;;;;;;;;;;4991685;28;20940;-49
2022/04/20 02:44:38;;;;;;;5.47;4.43;;;;;;;;;;4992015;28;20443;-49
2022/04/20 02:47:04;;;;;;;4.00;3.70;;;;;;;;;;4992040;28;20420;-50
2022/04/20 02:49:30;;;;;;;5.33;3.77;;;;;;;;;;4992025;28;20400;-50
2022/04/20 02:51:56;;;;;;;4.27;3.87;;;;;;;;;;4991612;28;20423;-50
2022/04/20 02:54:22;;;;;;;5.83;4.47;;;;;;;;;;4992908;28;20404;-50
2022/04/20 02:56:48;;;;;;;4.63;4.23;;;;;;;;;;4995674;28;20495;-50
2022/04/20 02:59:14;;;;;;;4.40;4.07;;;;;;;;;;4995483;28;20404;-50
2022/04/20 03:01:40;;;;;;;6.60;4.80;;;;;;;;;;4995260;28;20479;-50
2022/04/20 03:04:06;;;;;;;7.30;3.70;;;;;;;;;;4995403;28;20429;-50
2022/04/20 03:06:32;;;;;;;5.80;4.60;;;;;;;;;;4995640;28;20400;-49
2022/04/20 03:08:58;;;;;;;4.83;4.30;;;;;;;;;;4995695;28;20405;-50
2022/04/20 03:11:24;;;;;;;5.00;4.50;;;;;;;;;;4995194;28;20487;-50
2022/04/20 03:13:50;;;;;;;4.83;4.37;;;;;;;;;;4994914;28;20510;-49
2022/04/20 03:16:16;;;;;;;4.67;4.17;;;;;;;;;;4995168;28;20471;-49
2022/04/20 03:18:42;;;;;;;5.63;4.50;;;;;;;;;;4994136;28;20416;-50
2022/04/20 03:21:10;;;;;;;5.78;4.00;;;;;;;;;;4993398;28;20404;-51
2022/04/20 03:23:36;;;;;;;5.45;3.92;;;;;;;;;;4993477;28;20205;-50
2022/04/20 03:26:03;;;;;;;6.13;3.70;;;;;;;;;;4994168;28;20231;-50
2022/04/20 03:28:30;;;;;;;4.90;4.40;;;;;;;;;;4995108;28;20506;-49
2022/04/20 03:30:56;;;;;;;4.80;4.30;;;;;;;;;;4995131;28;21028;-49
2022/04/20 03:33:22;;;;;;;5.90;3.97;;;;;;;;;;4994664;28;20499;-49
2022/04/20 03:35:49;;;;;;;5.17;4.67;;;;;;;;;;4995089;28;20396;-50
2022/04/20 03:38:15;;;;;;;4.63;3.70;;;;;;;;;;4994974;28;20490;-49
2022/04/20 03:40:41;;;;;;;5.50;3.90;;;;;;;;;;4994936;28;20532;-49
2022/04/20 03:43:07;;;;;;;4.80;4.17;;;;;;;;;;4994377;28;20700;-50
2022/04/20 03:45:33;;;;;;;4.80;4.40;;;;;;;;;;4994839;28;20795;-49
2022/04/20 03:47:59;;;;;;;4.63;4.23;;;;;;;;;;4994837;28;20486;-50
2022/04/20 03:50:25;;;;;;;4.20;3.80;;;;;;;;;;4994681;28;20397;-49
2022/04/20 03:52:51;;;;;;;6.80;4.77;;;;;;;;;;4994483;28;20490;-49
2022/04/20 03:55:17;;;;;;;4.70;4.30;;;;;;;;;;4994738;28;20432;-50
2022/04/20 03:57:44;;;;;;;7.43;5.35;;;;;;;;;;4994547;28;20471;-49
2022/04/20 04:00:10;;;;;;;5.70;4.80;;;;;;;;;;4994623;28;20173;-50
2022/04/20 04:02:36;;;;;;;6.45;4.60;;;;;;;;;;4994092;28;20205;-49
2022/04/20 04:05:02;;;;;;;6.27;5.00;;;;;;;;;;4994564;28;20590;-50
2022/04/20 04:07:28;;;;;;;4.40;4.00;;;;;;;;;;4993875;28;20404;-50
2022/04/20 04:09:55;;;;;;;6.50;4.90;;;;;;;;;;4994493;28;20176;-50
2022/04/20 04:12:24;;;;;;;5.53;5.03;;;;;;;;;;4993703;28;20464;-49
2022/04/20 04:14:50;;;;;;;8.70;4.40;;;;;;;;;;4994354;28;20548;-49
2022/04/20 04:17:15;;;;;;;5.95;4.55;;;;;;;;;;4994304;28;20592;-49
2022/04/20 04:19:41;;;;;;;6.50;4.60;;;;;;;;;;4994226;28;20172;-49
2022/04/20 04:22:07;;;;;;;8.53;5.00;;;;;;;;;;4993733;28;20813;-50
2022/04/20 04:24:37;;;;;;;5.20;4.70;;;;;;;;;;4994114;28;20570;-50
2022/04/20 04:27:06;;;;;;;9.00;5.47;;;;;;;;;;4994071;28;20419;-49
2022/04/20 04:29:32;;;;;;;8.55;5.47;;;;;;;;;;4994025;28;20166;-49
2022/04/20 04:31:59;;;;;;;6.28;5.05;;;;;;;;;;4993605;28;20215;-49
2022/04/20 04:34:26;;;;;;;7.22;4.80;;;;;;;;;;4993728;28;20196;-49
2022/04/20 04:36:53;;;;;;;6.80;4.85;;;;;;;;;;4993828;28;20181;-50
2022/04/20 04:39:21;;;;;;;9.30;5.40;;;;;;;;;;4993869;28;20165;-49
2022/04/20 04:41:47;;;;;;;7.40;5.05;;;;;;;;;;4993488;28;20544;-50
2022/04/20 04:44:13;;;;;;;7.50;5.25;;;;;;;;;;4993682;28;20677;-49
2022/04/20 04:49:24;;;;;;;6.13;4.47;;;;;;;;;;4993569;28;20396;-49
2022/04/20 04:51:50;;;;;;;8.73;4.77;;;;;;;;;;4993290;28;20169;-50
2022/04/20 04:54:16;;;;;;;6.00;4.87;;;;;;;;;;4993654;28;20790;-50
2022/04/20 04:56:42;;;;;;;5.32;4.82;;;;;;;;;;4993623;28;20745;-50
2022/04/20 04:59:08;;;;;;;5.85;5.25;;;;;;;;;;4993456;28;20600;-49
2022/04/20 05:01:34;;;;;;;8.83;4.70;;;;;;;;;;4992992;28;20685;-49
2022/04/20 05:04:00;;;;;;;5.90;4.83;;;;;;;;;;4993094;28;20427;-50
2022/04/20 05:06:26;;;;;;;6.63;4.70;;;;;;;;;;4993694;28;20407;-49
2022/04/20 05:08:52;;;;;;;8.40;5.38;;;;;;;;;;4993411;28;20405;-50
2022/04/20 05:11:18;;;;;;;8.03;5.20;;;;;;;;;;4993201;28;20691;-52
2022/04/20 05:13:44;;;;;;;8.02;5.28;;;;;;;;;;4992536;28;20458;-50
2022/04/20 05:16:11;;;;;;;6.70;5.87;;;;;;;;;;4993143;28;20633;-49
2022/04/20 05:18:37;;;;;;;6.00;5.40;;;;;;;;;;4992766;28;20451;-49
2022/04/20 05:21:03;;;;;;;9.27;5.13;;;;;;;;;;4992744;28;20177;-49
2022/04/20 05:23:29;;;;;;;6.50;5.40;;;;;;;;;;4992075;28;20470;-49
2022/04/20 05:25:55;;;;;;;7.55;4.90;;;;;;;;;;4992519;28;20404;-49
2022/04/20 05:28:21;;;;;;;5.53;4.70;;;;;;;;;;4992254;28;20651;-50
2022/04/20 05:30:46;;;;;;;5.57;5.07;;;;;;;;;;4992404;28;20907;-49
2022/04/20 05:33:12;;;;;;;7.83;4.80;;;;;;;;;;4992032;28;20562;-50
2022/04/20 05:35:38;;;;;;;7.10;4.83;;;;;;;;;;4992480;28;20404;-49
2022/04/20 05:43:35;;;;;;;5.77;5.17;;;;;;;;;;4987208;28;20216;-50
2022/04/20 05:46:01;;;;;;;10.47;5.93;;;;;;;;;;4992657;28;20396;-50
2022/04/20 05:48:27;;;;;;;5.70;5.00;;;;;;;;;;4992710;28;20404;-49
2022/04/20 05:50:53;;;;;;;12.40;6.37;;;;;;;;;;4992567;28;20399;-49
2022/04/20 05:53:19;;;;;;;5.70;5.20;;;;;;;;;;4992767;28;20959;-50
2022/04/20 05:55:48;;;;;;;8.50;5.80;;;;;;;;;;4982972;28;20408;-49
2022/04/20 05:58:15;;;;;;;5.10;4.70;;;;;;;;;;4994865;28;20503;-49
2022/04/20 06:00:41;;;;;;;7.20;5.37;;;;;;;;;;4992505;28;20412;-49
2022/04/20 06:03:07;;;;;;;7.70;5.40;;;;;;;;;;4991892;28;20831;-49
2022/04/20 06:05:34;;;;;;;7.13;5.90;;;;;;;;;;4992402;28;20392;-49
2022/04/20 06:07:59;;;;;;;9.50;6.47;;;;;;;;;;4992253;28;20892;-49
2022/04/20 06:10:26;;;;;;;8.30;5.30;;;;;;;;;;4992438;28;20498;-49
2022/04/20 06:12:52;;;;;;;11.47;4.63;;;;;;;;;;4991570;28;20536;-49
2022/04/20 06:15:18;;;;;;;7.47;5.40;;;;;;;;;;4992292;28;20492;-49
2022/04/20 06:17:44;;;;;;;7.60;5.73;;;;;;;;;;4992300;28;20900;-49
2022/04/20 06:20:10;;;;;;;6.73;5.67;;;;;;;;;;4992221;28;20405;-49
2022/04/20 06:22:36;;;;;;;7.13;5.33;;;;;;;;;;4991866;28;20463;-49
2022/04/20 06:25:03;;;;;;;7.77;5.30;;;;;;;;;;4992295;28;20883;-49
2022/04/20 06:27:32;;;;;;;5.40;4.90;;;;;;;;;;4992257;28;20475;-49
2022/04/20 06:29:58;;;;;;;5.23;4.80;;;;;;;;;;4994443;28;20456;-49
2022/04/20 06:32:25;;;;;;;12.10;5.33;;;;;;;;;;4995747;28;20432;-49
2022/04/20 06:34:57;;;;;;;7.50;6.13;;;;;;;;;;4996154;28;20468;-49
2022/04/20 06:37:24;;;;;;;6.23;5.60;;;;;;;;;;4996345;28;20409;-49
2022/04/20 06:39:50;;;;;;;7.47;5.30;;;;;;;;;;4996060;28;20415;-49
2022/04/20 06:42:18;;;;;;;8.30;5.33;;;;;;;;;;4995557;28;20490;-48
2022/04/20 06:44:44;;;;;;;7.93;5.53;;;;;;;;;;4995920;28;20396;-49
2022/04/20 06:47:10;;;;;;;6.73;5.00;;;;;;;;;;4995671;28;20427;-49
2022/04/20 06:49:36;;;;;;;6.67;5.67;;;;;;;;;;4995902;28;20900;-49
2022/04/20 07:00:16;;;;;;;5.30;4.80;;;;;;;;;;4995796;28;20442;-49
2022/04/20 07:02:42;;;;;;;5.13;4.73;;;;;;;;;;4995131;28;20459;-49
2022/04/20 07:05:09;;;;;;;6.20;4.53;;;;;;;;;;4995620;28;20477;-49
2022/04/20 07:07:35;;;;;;;7.83;4.67;;;;;;;;;;4995575;28;20400;-49
2022/04/20 07:10:02;;;;;;;5.60;5.00;;;;;;;;;;4995552;28;20466;-49
2022/04/20 07:12:28;;;;;;;6.53;5.00;;;;;;;;;;4994689;28;20448;-49
2022/04/20 07:14:54;;;;;;;6.73;4.67;;;;;;;;;;4995598;28;20458;-48
2022/04/20 07:17:20;;;;;;;5.93;5.33;;;;;;;;;;4995447;28;20754;-49
2022/04/20 07:19:46;;;;;;;8.30;4.30;;;;;;;;;;4995381;28;20490;-49
2022/04/20 07:22:12;;;;;;;5.63;4.80;;;;;;;;;;4994880;28;20447;-49
2022/04/20 07:24:38;;;;;;;6.33;4.50;;;;;;;;;;4995302;28;20398;-50
2022/04/20 07:27:04;;;;;;;4.70;4.13;;;;;;;;;;4995395;28;20912;-52
2022/04/20 07:29:30;;;;;;;7.27;4.20;;;;;;;;;;4995179;28;20404;-52
2022/04/20 07:31:56;;;;;;;4.70;4.30;;;;;;;;;;4994793;28;20407;-50
2022/04/20 07:34:22;;;;;;;4.23;3.70;;;;;;;;;;4995136;28;20434;-50
2022/04/20 07:36:49;;;;;;;5.50;3.67;;;;;;;;;;4995061;28;20404;-50
2022/04/20 07:39:15;;;;;;;4.40;3.40;;;;;;;;;;4995078;28;20480;-51
2022/04/20 07:41:41;;;;;;;4.47;3.67;;;;;;;;;;4993702;28;20546;-53
2022/04/20 07:44:07;;;;;;;4.07;3.57;;;;;;;;;;4994870;28;20439;-50
2022/04/20 07:46:33;;;;;;;8.50;3.17;;;;;;;;;;4994875;28;20497;-50
2022/04/20 07:50:17;;;;;;;3.87;3.50;;;;;;;;;;4994796;28;20402;-50
2022/04/20 07:51:45;;;;;;;4.30;3.30;;;;;;;;;;4994408;28;20427;-50
2022/04/20 07:54:10;;;;;;;3.73;3.10;;;;;;;;;;4994743;28;20813;-50
2022/04/20 07:56:36;;;;;;;7.30;3.50;;;;;;;;;;5001705;28;20420;-52
2022/04/20 07:59:02;;;;;;;5.40;4.00;;;;;;;;;;5001928;28;20526;-53
2022/04/20 08:01:28;;;;;;;3.33;3.03;;;;;;;;;;5009805;28;20427;-52
2022/04/20 08:03:54;;;;;;;3.43;2.80;;;;;;;;;;5003880;28;20451;-52
2022/04/20 08:06:20;;;;;;;7.30;3.40;;;;;;;;;;5007054;28;20450;-53
2022/04/20 08:08:46;;;;;;;3.67;3.20;;;;;;;;;;5014642;28;20445;-53
2022/04/20 08:11:12;;;;;;;3.53;3.20;;;;;;;;;;5003509;28;20404;-52
2022/04/20 08:16:23;;;;;;;5.27;2.93;;;;;;;;;;5014251;28;20446;-52
2022/04/20 08:18:49;;;;;;;4.60;3.27;;;;;;;;;;5005431;28;20416;-51
2022/04/20 08:21:15;;;;;;;8.40;2.90;;;;;;;;;;4993910;28;20416;-52
2022/04/20 08:23:41;;;;;;;4.70;2.90;;;;;;;;;;4993617;28;20479;-52
2022/04/20 08:26:07;;;;;;;3.87;3.47;;;;;;;;;;4993639;28;20543;-51
2022/04/20 08:28:34;;;;;;;3.40;3.10;;;;;;;;;;4993497;28;20420;-51
2022/04/20 08:31:00;;;;;;;2.90;2.70;;;;;;;;;;4992054;28;20427;-51
2022/04/20 08:33:25;;;;;;;3.77;3.37;;;;;;;;;;4999259;28;20448;-51
2022/04/20 08:35:52;;;;;;;5.60;2.53;;;;;;;;;;4994112;28;20535;-51
2022/04/20 08:38:22;;;;;;;3.47;3.17;;;;;;;;;;5012112;28;20929;-51
2022/04/20 08:40:48;;;;;;;3.33;3.00;;;;;;;;;;4973338;28;20794;-51
2022/04/20 08:43:15;;;;;;;2.93;2.70;;;;;;;;;;4990763;28;20470;-52
2022/04/20 08:45:43;;;;;;;3.87;2.97;;;;;;;;;;4993639;28;20458;-51
2022/04/20 08:48:09;;;;;;;7.27;5.93;;;;;;;;;;4993477;28;20415;-51
2022/04/20 08:50:35;;;;;;;2.80;2.60;;;;;;;;;;4993930;28;20407;-51
2022/04/20 08:53:02;;;;;;;4.30;3.23;;;;;;;;;;4992878;28;20458;-51
2022/04/20 08:55:28;;;;;;;4.10;2.73;;;;;;;;;;4988493;28;20858;-51
2022/04/20 08:57:54;;;;;;;4.53;2.67;;;;;;;;;;4993350;28;20435;-52
2022/04/20 09:00:26;;;;;;;3.77;3.20;;;;;;;;;;4992643;28;20431;-52
2022/04/20 09:02:57;;;;;;;3.43;2.87;;;;;;;;;;4992638;28;20463;-51
2022/04/20 09:05:28;;;;;;;2.50;2.40;;;;;;;;;;4983408;28;20510;-52
2022/04/20 09:07:54;;;;;;;2.83;2.63;;;;;;;;;;4996506;28;20408;-53
2022/04/20 09:10:20;;;;;;;4.80;2.73;;;;;;;;;;4991598;28;20419;-51
2022/04/20 09:12:47;;;;;;;2.90;2.70;;;;;;;;;;4992337;28;20448;-52
2022/04/20 09:15:17;;;;;;;2.87;2.43;;;;;;;;;;4989221;28;20416;-51
2022/04/20 09:17:44;;;;;;;3.60;2.70;;;;;;;;;;4993175;28;20763;-51
2022/04/20 09:20:16;;;;;;;3.10;2.80;;;;;;;;;;4992834;28;20435;-52
2022/04/20 09:22:42;;;;;;;4.60;3.30;;;;;;;;;;4990300;28;20463;-52
2022/04/20 09:25:14;;;;;;;3.50;2.73;;;;;;;;;;4993018;28;20499;-51
2022/04/20 09:27:41;;;;;;;4.80;2.63;;;;;;;;;;4992993;28;20399;-52
2022/04/20 09:30:11;;;;;;;3.23;2.10;;;;;;;;;;4992827;28;20812;-52
2022/04/20 09:32:38;;;;;;;6.73;2.80;;;;;;;;;;4992266;28;20451;-51
2022/04/20 09:35:08;;;;;;;2.90;2.00;;;;;;;;;;4992771;28;20419;-51
2022/04/20 09:37:35;;;;;;;2.17;1.90;;;;;;;;;;4992526;28;20420;-51
2022/04/20 09:40:01;;;;;;;2.80;2.60;;;;;;;;;;4992513;28;20404;-52
2022/04/20 09:42:28;;;;;;;2.97;2.70;;;;;;;;;;4992275;28;20463;-53
2022/04/20 09:44:56;;;;;;;5.40;2.73;;;;;;;;;;4992519;28;20418;-51
2022/04/20 09:50:11;;;;;;;2.80;2.60;;;;;;;;;;4973705;28;20400;-52
2022/04/20 09:52:44;;;;;;;4.43;2.50;;;;;;;;;;4991504;28;20463;-52
2022/04/20 09:55:14;;;;;;;3.27;2.77;;;;;;;;;;4994148;28;20427;-51
2022/04/20 09:57:40;;;;;;;2.90;2.63;;;;;;;;;;4991963;28;20842;-52
2022/04/20 10:00:15;;;;;;;2.80;2.60;;;;;;;;;;4992457;28;20415;-51
2022/04/20 10:02:54;;;;;;;2.77;2.57;;;;;;;;;;4990095;28;20474;-52
2022/04/20 10:05:21;;;;;;;2.43;2.23;;;;;;;;;;4991709;28;20404;-52
2022/04/20 10:07:47;;;;;;;2.40;2.20;;;;;;;;;;5008389;28;20465;-52
2022/04/20 10:10:13;;;;;;;2.40;2.20;;;;;;;;;;5011569;28;20456;-51
2022/04/20 10:12:40;;;;;;;5.00;2.80;;;;;;;;;;5011180;28;20442;-51
2022/04/20 10:17:53;;;;;;;2.83;2.63;;;;;;;;;;5011081;28;20723;-51
2022/04/20 10:20:21;;;;;;;4.00;2.80;;;;;;;;;;5010722;28;20395;-51
2022/04/20 10:22:48;;;;;;;2.73;2.53;;;;;;;;;;5010262;28;20458;-51
2022/04/20 10:25:14;;;;;;;2.97;2.77;;;;;;;;;;5011401;28;20457;-51
2022/04/20 10:27:58;;;;;;;7.33;3.10;;;;;;;;;;5011860;28;20766;-51
2022/04/20 10:30:33;;;;;;;4.30;2.90;;;;;;;;;;5011706;28;20410;-51
2022/04/20 10:33:06;;;;;;;2.87;2.67;;;;;;;;;;5011309;28;20427;-52
2022/04/20 10:35:34;;;;;;;3.50;3.20;;;;;;;;;;5011681;28;20461;-51
2022/04/20 10:38:09;;;;;;;4.60;2.80;;;;;;;;;;5011821;28;20964;-51
2022/04/20 10:40:53;;;;;;;3.83;2.77;;;;;;;;;;5011611;28;20822;-52
2022/04/20 10:43:21;;;;;;;2.90;2.70;;;;;;;;;;5011251;28;20485;-51
2022/04/20 10:46:02;;;;;;;2.80;2.57;;;;;;;;;;5011665;28;20442;-51
2022/04/20 10:48:42;;;;;;;4.73;3.00;;;;;;;;;;5011672;28;20967;-52
2022/04/20 10:51:12;;;;;;;4.00;2.43;;;;;;;;;;5011660;28;20427;-53
2022/04/20 10:53:38;;;;;;;2.80;2.60;;;;;;;;;;5011723;28;20502;-52
2022/04/20 10:56:04;;;;;;;3.30;3.00;;;;;;;;;;5011649;28;20414;-52
2022/04/20 10:58:30;;;;;;;3.07;2.50;;;;;;;;;;5013747;28;20407;-53
2022/04/20 11:01:10;;;;;;;3.67;2.70;;;;;;;;;;5020464;28;20442;-53
2022/04/20 11:03:53;;;;;;;4.70;2.97;;;;;;;;;;5018084;28;20451;-54
2022/04/20 11:06:20;;;;;;;2.43;2.30;;;;;;;;;;5001624;28;20418;-53
2022/04/20 11:08:45;;;;;;;3.57;2.47;;;;;;;;;;5011662;28;20499;-53
2022/04/20 11:19:53;;;;;;;3.17;2.87;;;;;;;;;;5002532;28;20446;-53
2022/04/20 11:22:19;;;;;;;2.83;2.47;;;;;;;;;;5002760;28;20471;-53
2022/04/20 11:24:46;;;;;;;2.97;2.77;;;;;;;;;;5002775;28;20450;-53
2022/04/20 11:27:12;;;;;;;2.80;2.60;;;;;;;;;;5009352;28;20471;-53
2022/04/20 11:29:38;;;;;;;4.60;3.07;;;;;;;;;;5002911;28;20411;-52
2022/04/20 11:32:07;;;;;;;3.57;2.67;;;;;;;;;;5001436;28;20420;-53
2022/04/20 11:34:34;;;;;;;3.77;2.70;;;;;;;;;;5000274;28;20497;-52
2022/04/20 11:37:00;;;;;;;3.37;2.97;;;;;;;;;;5000468;28;20451;-53
2022/04/20 11:39:28;;;;;;;2.80;2.60;;;;;;;;;;4984468;28;20440;-54
2022/04/20 11:42:01;;;;;;;3.70;2.57;;;;;;;;;;4982259;28;20540;-54
2022/04/20 11:44:47;;;;;;;3.37;2.60;;;;;;;;;;4987879;28;20907;-53
2022/04/20 11:47:17;;;;;;;3.00;2.70;;;;;;;;;;5003166;28;20965;-53
2022/04/20 11:49:46;;;;;;;3.20;2.90;;;;;;;;;;4993544;28;20413;-53
2022/04/20 11:52:14;;;;;;;2.80;2.60;;;;;;;;;;4998796;28;20424;-52
2022/04/20 11:54:41;;;;;;;5.73;2.50;;;;;;;;;;5000341;28;20508;-53
2022/04/20 11:57:08;;;;;;;3.43;2.80;;;;;;;;;;5000118;28;20452;-53
2022/04/20 11:59:35;;;;;;;12.20;2.87;;;;;;;;;;4999015;28;20941;-53
2022/04/20 12:02:01;;;;;;;2.50;2.30;;;;;;;;;;5001603;28;20451;-54
2022/04/20 12:04:27;;;;;;;3.40;3.10;;;;;;;;;;5000218;28;20443;-53
2022/04/20 12:06:58;;;;;;;3.50;2.53;;;;;;;;;;5009804;28;20411;-53
2022/04/20 12:09:28;;;;;;;3.70;2.27;;;;;;;;;;5013545;28;20778;-53
2022/04/20 12:11:55;;;;;;;3.00;2.80;;;;;;;;;;5000080;28;20424;-53
2022/04/20 12:14:23;;;;;;;3.17;2.57;;;;;;;;;;5001580;28;20978;-53
2022/04/20 12:16:51;;;;;;;2.97;2.27;;;;;;;;;;5001149;28;20435;-53
2022/04/20 12:19:17;;;;;;;3.70;2.47;;;;;;;;;;5000574;28;20952;-53
2022/04/20 12:21:44;;;;;;;2.80;2.60;;;;;;;;;;5000078;28;20412;-53
2022/04/20 12:24:12;;;;;;;2.83;2.50;;;;;;;;;;5000622;28;20428;-53
2022/04/20 12:26:44;;;;;;;3.23;3.00;;;;;;;;;;4999510;28;20420;-53
2022/04/20 12:29:11;;;;;;;3.53;2.27;;;;;;;;;;4984211;28;20433;-53
2022/04/20 12:31:43;;;;;;;3.00;2.60;;;;;;;;;;4980980;28;20427;-51
2022/04/20 12:34:11;;;;;;;4.03;2.60;;;;;;;;;;4993234;28;20443;-50
2022/04/20 12:36:58;;;;;;;2.80;2.60;;;;;;;;;;4993821;28;20962;-51
2022/04/20 12:39:26;;;;;;;3.90;2.87;;;;;;;;;;4991858;28;20416;-51
2022/04/20 12:41:58;;;;;;;2.90;2.33;;;;;;;;;;4974209;28;20469;-50
2022/04/20 12:44:37;;;;;;;3.40;2.50;;;;;;;;;;4991500;28;20419;-51
2022/04/20 12:47:04;;;;;;;7.03;2.93;;;;;;;;;;4993766;28;20396;-51
2022/04/20 12:49:30;;;;;;;2.87;2.63;;;;;;;;;;4993607;28;20515;-51
2022/04/20 12:52:06;;;;;;;3.63;2.90;;;;;;;;;;4993385;28;20420;-51
2022/04/20 12:54:32;;;;;;;3.90;2.70;;;;;;;;;;4993158;28;20423;-51
2022/04/20 13:02:28;;;;;;;3.27;3.07;;;;;;;;;;4994220;28;20494;-52
2022/04/20 13:04:54;;;;;;;3.20;2.67;;;;;;;;;;4974563;28;20955;-51
2022/04/20 13:07:20;;;;;;;2.77;2.60;;;;;;;;;;4994089;28;20404;-51
2022/04/20 13:09:46;;;;;;;4.90;2.30;;;;;;;;;;4992596;28;20881;-51
2022/04/20 13:12:12;;;;;;;3.23;2.93;;;;;;;;;;4992869;28;20848;-51
2022/04/20 13:14:38;;;;;;;2.90;2.70;;;;;;;;;;4993355;28;20436;-51
2022/04/20 13:17:09;;;;;;;2.57;2.37;;;;;;;;;;4993236;28;20428;-51
2022/04/20 13:19:36;;;;;;;2.83;2.63;;;;;;;;;;4993208;28;20400;-54
2022/04/20 13:22:02;;;;;;;2.70;2.50;;;;;;;;;;4992697;28;20458;-52
2022/04/20 13:29:49;;;;;;;3.10;2.83;;;;;;;;;;5526732;23;20519;-51
2022/04/20 13:32:15;;;;;;;3.20;2.80;;;;;;;;;;4952830;28;20444;-52
2022/04/20 13:34:41;;;;;;;2.60;2.50;;;;;;;;;;4949998;28;20441;-52
2022/04/20 13:37:07;;;;;;;3.83;3.00;;;;;;;;;;4953521;29;20445;-52
2022/04/20 13:39:33;;;;;;;3.57;3.27;;;;;;;;;;4960879;28;20500;-51
2022/04/20 13:41:59;;;;;;;4.00;3.03;;;;;;;;;;4954518;28;20473;-51
2022/04/20 13:44:25;;;;;;;5.33;2.83;;;;;;;;;;4953348;28;20792;-51
2022/04/20 13:46:51;;;;;;;2.57;2.40;;;;;;;;;;4956243;28;20925;-53
2022/04/20 13:49:17;;;;;;;2.50;2.30;;;;;;;;;;4953420;28;20437;-52
2022/04/20 13:51:43;;;;;;;4.53;2.90;;;;;;;;;;4953817;28;20410;-52
2022/04/20 13:54:09;;;;;;;5.73;3.00;;;;;;;;;;4953867;28;20429;-52
2022/04/20 13:56:35;;;;;;;4.07;3.77;;;;;;;;;;4953902;28;20480;-51
2022/04/20 13:59:01;;;;;;;3.17;2.93;;;;;;;;;;4952471;28;20508;-51
2022/04/20 14:01:27;;;;;;;2.90;2.70;;;;;;;;;;4953599;28;20418;-52
2022/04/20 14:03:53;;;;;;;4.93;3.07;;;;;;;;;;4954756;28;21004;-52
2022/04/20 14:06:19;;;;;;;4.37;3.67;;;;;;;;;;4953750;28;20421;-51
2022/04/20 14:08:45;;;;;;;3.20;3.00;;;;;;;;;;4952812;28;20410;-52
2022/04/20 14:11:11;;;;;;;3.40;3.10;;;;;;;;;;4953802;28;20914;-53
2022/04/20 14:13:39;;;;;;;4.17;3.70;;;;;;;;;;4953210;28;20949;-53
2022/04/20 14:16:05;;;;;;;4.10;3.80;;;;;;;;;;4953576;28;20432;-52
2022/04/20 14:18:31;;;;;;;5.90;4.30;;;;;;;;;;4952944;28;20824;-52
2022/04/20 14:20:57;;;;;;;3.90;3.60;;;;;;;;;;4953375;28;20426;-52
2022/04/20 14:23:23;;;;;;;5.93;4.43;;;;;;;;;;4953389;28;20490;-53
2022/04/20 14:34:03;;;;;;;5.63;5.13;;;;;;;;;;4953150;29;20597;-52
2022/04/20 14:36:28;;;;;;;5.33;4.83;;;;;;;;;;4953088;28;20421;-53
2022/04/20 14:38:55;;;;;;;5.23;4.77;;;;;;;;;;4961465;28;21068;-53
2022/04/20 14:41:20;;;;;;;9.03;4.47;;;;;;;;;;4953309;28;20426;-52
2022/04/20 14:43:47;;;;;;;4.90;4.30;;;;;;;;;;4953088;28;20480;-52
2022/04/20 14:46:13;;;;;;;7.70;4.80;;;;;;;;;;4953172;28;20934;-51
2022/04/20 14:48:39;;;;;;;5.17;4.70;;;;;;;;;;4952313;28;20455;-52
2022/04/20 14:51:05;;;;;;;6.27;5.63;;;;;;;;;;4955263;28;20422;-52
2022/04/20 14:53:32;;;;;;;5.83;4.97;;;;;;;;;;4956542;28;20429;-51
2022/04/20 14:55:58;;;;;;;5.07;4.50;;;;;;;;;;4956910;29;20980;-54
2022/04/20 14:58:24;;;;;;;4.00;3.70;;;;;;;;;;4956440;28;20434;-52
2022/04/20 15:00:50;;;;;;;3.97;3.63;;;;;;;;;;4956363;28;20498;-61
2022/04/20 15:03:16;;;;;;;5.10;3.60;;;;;;;;;;4956802;28;20572;-51
2022/04/20 15:05:42;;;;;;;4.07;3.87;;;;;;;;;;4956404;28;20502;-51
2022/04/20 15:08:08;;;;;;;4.20;3.90;;;;;;;;;;4956611;28;20426;-54
2022/04/20 15:10:34;;;;;;;7.27;4.37;;;;;;;;;;4955844;28;20802;-54
2022/04/20 15:13:00;;;;;;;6.70;5.07;;;;;;;;;;4956314;29;20508;-52
2022/04/20 15:15:26;;;;;;;4.47;4.07;;;;;;;;;;4956546;28;20580;-51
2022/04/20 15:17:53;;;;;;;7.03;4.90;;;;;;;;;;4955973;29;20946;-52
2022/04/20 15:20:19;;;;;;;6.57;4.57;;;;;;;;;;4955470;28;20498;-52
2022/04/20 15:22:45;;;;;;;5.00;4.60;;;;;;;;;;4956383;29;20516;-52
2022/04/20 15:25:12;;;;;;;4.80;4.33;;;;;;;;;;4956335;28;21000;-51
2022/04/20 15:27:39;;;;;;;4.47;4.10;;;;;;;;;;4956171;28;20458;-50
2022/04/20 15:30:05;;;;;;;5.50;4.67;;;;;;;;;;4954844;28;20440;-53
2022/04/20 15:32:32;;;;;;;4.13;3.73;;;;;;;;;;4956209;28;20432;-51
2022/04/20 15:34:59;;;;;;;4.33;3.93;;;;;;;;;;4954932;29;20910;-52
2022/04/20 15:37:25;;;;;;;5.00;4.30;;;;;;;;;;4957436;28;20432;-52